Time;durP1;ratioP1;P1;durP2;ratioP2;P2;SDS_P1;SDS_P2;PMS_P1;PMS_P2;Temp;Humidity;BMP_temperature;BMP_pressure;BME280_temperature;BME280_humidity;BME280_pressure;Samples;Min_cycle;Max_cycle;Signal;HPM_P1;HPM_P2
2021/03/01 00:00:36;;;;;;;5.72;3.80;;;-0.20;99.90;;;;;;5005677;28;20097;-75
2021/03/01 00:03:01;;;;;;;5.70;3.30;;;-0.10;99.90;;;;;;5010798;28;20607;-76
2021/03/01 00:05:27;;;;;;;5.80;3.00;;;0.00;99.90;;;;;;5014650;28;20499;-76
2021/03/01 00:07:53;;;;;;;7.22;3.60;;;-0.10;99.90;;;;;;5010135;28;20083;-76
2021/03/01 00:10:19;;;;;;;7.35;4.07;;;0.00;99.90;;;;;;5010615;28;20086;-76
2021/03/01 00:12:45;;;;;;;8.43;4.30;;;0.00;99.90;;;;;;5010950;28;20102;-76
2021/03/01 00:15:14;;;;;;;6.53;3.42;;;0.10;99.90;;;;;;5010354;28;20094;-76
2021/03/01 00:17:40;;;;;;;5.30;2.95;;;-0.10;99.90;;;;;;5011166;28;20074;-76
2021/03/01 00:20:09;;;;;;;5.95;2.97;;;-0.10;99.90;;;;;;5005477;28;20093;-76
2021/03/01 00:22:35;;;;;;;6.63;3.10;;;-0.10;99.90;;;;;;4995156;28;20085;-77
2021/03/01 00:25:01;;;;;;;6.70;3.47;;;-0.10;99.90;;;;;;5002590;28;20086;-76
2021/03/01 00:27:26;;;;;;;5.93;3.08;;;0.10;99.90;;;;;;4995455;28;20082;-76
2021/03/01 00:29:52;;;;;;;5.53;3.47;;;-0.20;99.90;;;;;;5001682;28;20078;-77
2021/03/01 00:32:18;;;;;;;8.40;3.60;;;0.00;99.90;;;;;;5000066;28;20187;-77
2021/03/01 00:34:43;;;;;;;7.18;3.50;;;-0.40;99.90;;;;;;4995384;28;20504;-77
2021/03/01 00:37:09;;;;;;;7.75;3.63;;;-0.40;99.90;;;;;;4995892;28;20169;-76
2021/03/01 00:39:35;;;;;;;6.63;3.55;;;0.00;99.90;;;;;;4996891;28;20075;-77
2021/03/01 00:42:01;;;;;;;7.00;4.10;;;0.00;99.90;;;;;;5010823;28;20094;-77
2021/03/01 00:44:26;;;;;;;7.55;4.40;;;-0.10;99.90;;;;;;4994866;28;20101;-77
2021/03/01 00:46:52;;;;;;;5.28;3.72;;;0.00;99.90;;;;;;4994633;28;20437;-77
2021/03/01 00:49:18;;;;;;;7.45;3.47;;;0.00;99.90;;;;;;5001607;28;20093;-77
2021/03/01 00:51:43;;;;;;;4.43;3.00;;;0.00;99.90;;;;;;5017131;28;20448;-77
2021/03/01 00:54:09;;;;;;;5.57;3.08;;;0.00;99.90;;;;;;5013670;28;20076;-77
2021/03/01 00:56:35;;;;;;;6.43;3.40;;;0.10;99.90;;;;;;5010695;28;20629;-77
2021/03/01 00:59:01;;;;;;;7.65;4.55;;;-0.10;99.90;;;;;;4998563;28;20082;-78
2021/03/01 01:01:29;;;;;;;7.35;3.90;;;-0.20;99.90;;;;;;5002343;28;20074;-78
2021/03/01 01:03:55;;;;;;;4.63;2.67;;;-0.20;99.90;;;;;;5011272;28;20138;-78
2021/03/01 01:06:21;;;;;;;6.80;3.60;;;0.00;99.90;;;;;;5007553;28;20121;-78
2021/03/01 01:08:47;;;;;;;7.75;3.13;;;-0.10;99.90;;;;;;4995234;28;20521;-77
2021/03/01 01:11:13;;;;;;;8.25;3.25;;;-0.50;99.90;;;;;;5012255;28;20543;-77
2021/03/01 01:13:38;;;;;;;6.88;3.30;;;-0.60;99.90;;;;;;5003942;28;20098;-78
2021/03/01 01:16:04;;;;;;;5.22;3.40;;;-0.50;99.90;;;;;;4999455;28;20098;-77
2021/03/01 01:18:30;;;;;;;5.53;3.70;;;-0.20;99.90;;;;;;5004806;28;20532;-79
2021/03/01 01:20:56;;;;;;;4.82;3.75;;;0.00;99.90;;;;;;5004034;28;20173;-76
2021/03/01 01:23:21;;;;;;;4.72;3.30;;;0.20;99.90;;;;;;5010985;28;20153;-77
2021/03/01 01:25:47;;;;;;;6.90;3.53;;;0.00;99.90;;;;;;5009878;28;20101;-77
2021/03/01 01:28:14;;;;;;;7.05;3.45;;;0.00;99.90;;;;;;5016052;28;20074;-77
2021/03/01 01:30:40;;;;;;;5.03;3.35;;;-0.50;99.90;;;;;;5002566;28;20089;-78
2021/03/01 01:33:06;;;;;;;5.35;3.25;;;-0.50;99.90;;;;;;5009448;28;20102;-77
2021/03/01 01:35:31;;;;;;;7.43;3.50;;;-0.30;99.90;;;;;;5003758;28;20631;-77
2021/03/01 01:37:57;;;;;;;6.13;4.30;;;-0.10;99.90;;;;;;5002709;28;20082;-76
2021/03/01 01:40:23;;;;;;;4.97;2.97;;;-0.20;99.90;;;;;;4998542;28;20085;-76
2021/03/01 01:42:51;;;;;;;5.65;2.88;;;-0.20;99.90;;;;;;4999459;28;20797;-76
2021/03/01 01:45:23;;;;;;;6.00;3.70;;;-0.10;99.90;;;;;;5014369;28;20125;-75
2021/03/01 01:47:50;;;;;;;6.95;4.25;;;-0.10;99.90;;;;;;5004672;28;20896;-75
2021/03/01 01:50:22;;;;;;;6.53;3.70;;;-0.30;99.90;;;;;;5008127;28;20090;-75
2021/03/01 01:52:50;;;;;;;8.48;3.70;;;-0.20;99.90;;;;;;5015295;28;20528;-75
2021/03/01 01:55:16;;;;;;;7.43;3.80;;;-0.20;99.90;;;;;;5008192;28;20098;-75
2021/03/01 01:57:43;;;;;;;7.68;4.07;;;-0.20;99.90;;;;;;5008662;28;20105;-75
2021/03/01 02:03:31;;;;;;;7.03;3.75;;;0.00;99.90;;;;;;5025478;28;20097;-75
2021/03/01 02:06:05;;;;;;;5.22;3.08;;;0.10;99.90;;;;;;4993189;28;20471;-75
2021/03/01 02:08:47;;;;;;;7.03;3.88;;;-0.20;99.90;;;;;;5002111;28;20790;-76
2021/03/01 02:11:25;;;;;;;7.53;3.78;;;-1.00;99.90;;;;;;5008748;28;20506;-76
2021/03/01 02:14:34;;;;;;;5.70;3.42;;;-0.60;99.90;;;;;;4999426;28;20162;-76
2021/03/01 02:17:00;;;;;;;7.10;3.63;;;-0.40;99.90;;;;;;4995280;28;20208;-76
2021/03/01 02:19:26;;;;;;;7.13;3.90;;;-0.30;99.90;;;;;;4993241;28;20560;-76
2021/03/01 02:21:52;;;;;;;5.88;3.75;;;-0.10;99.90;;;;;;4995750;28;20078;-76
2021/03/01 02:24:51;;;;;;;7.05;3.63;;;-0.10;99.90;;;;;;5008953;28;20156;-76
2021/03/01 02:27:24;;;;;;;5.72;3.72;;;-0.20;99.90;;;;;;4993086;28;20082;-75
2021/03/01 02:29:55;;;;;;;4.43;2.95;;;-0.30;99.90;;;;;;5005714;28;20447;-76
2021/03/01 02:32:22;;;;;;;5.03;3.15;;;-0.40;99.90;;;;;;4999836;28;20144;-76
2021/03/01 02:34:49;;;;;;;6.97;3.15;;;-0.20;99.90;;;;;;4992361;28;20085;-76
2021/03/01 02:37:18;;;;;;;7.15;3.45;;;-0.20;99.90;;;;;;4995512;28;20274;-76
2021/03/01 02:39:46;;;;;;;7.10;3.92;;;-0.70;99.90;;;;;;5009624;28;20458;-75
2021/03/01 02:42:25;;;;;;;6.60;3.53;;;-0.50;99.90;;;;;;4992824;28;20094;-76
2021/03/01 02:44:52;;;;;;;6.53;3.80;;;-0.30;99.90;;;;;;4992118;28;20078;-76
2021/03/01 02:47:20;;;;;;;6.75;3.53;;;-0.10;99.90;;;;;;4992661;28;20577;-76
2021/03/01 02:49:47;;;;;;;6.20;3.67;;;-0.10;99.90;;;;;;4992090;28;20085;-76
2021/03/01 02:52:16;;;;;;;6.55;4.53;;;-0.20;99.90;;;;;;4999294;28;20097;-75
2021/03/01 02:54:42;;;;;;;6.30;3.90;;;-0.30;99.90;;;;;;5009273;28;20093;-75
2021/03/01 02:57:10;;;;;;;6.40;3.65;;;-0.40;99.90;;;;;;4992057;28;20082;-75
2021/03/01 02:59:37;;;;;;;6.43;4.05;;;-0.50;99.90;;;;;;4995428;28;20074;-76
2021/03/01 03:02:03;;;;;;;6.97;3.38;;;-0.70;99.90;;;;;;5006826;28;20445;-75
2021/03/01 03:04:30;;;;;;;6.18;3.70;;;-0.70;99.90;;;;;;5015758;28;20089;-75
2021/03/01 03:06:57;;;;;;;7.10;3.67;;;-0.70;99.90;;;;;;4992669;28;20507;-75
2021/03/01 03:09:25;;;;;;;7.47;3.63;;;-0.70;99.90;;;;;;5008872;28;20743;-75
2021/03/01 03:11:53;;;;;;;8.43;3.83;;;-0.70;99.90;;;;;;4998329;28;20511;-76
2021/03/01 03:14:22;;;;;;;6.10;3.40;;;-0.60;99.90;;;;;;5010744;28;20513;-75
2021/03/01 03:16:53;;;;;;;7.43;3.70;;;-0.70;99.90;;;;;;5010695;28;20096;-75
2021/03/01 03:19:20;;;;;;;6.88;3.63;;;-0.60;99.90;;;;;;5005281;28;20225;-76
2021/03/01 03:21:46;;;;;;;9.60;4.28;;;-0.50;99.90;;;;;;4997979;28;20074;-75
2021/03/01 03:24:13;;;;;;;7.10;3.75;;;-0.60;99.90;;;;;;4995817;28;20081;-76
2021/03/01 03:26:38;;;;;;;6.93;4.32;;;-0.50;99.90;;;;;;4999160;28;20094;-75
2021/03/01 03:29:04;;;;;;;7.55;4.20;;;-0.40;99.90;;;;;;5005662;28;20092;-76
2021/03/01 03:31:30;;;;;;;6.47;3.70;;;-0.50;99.90;;;;;;5010811;28;20082;-76
2021/03/01 03:33:56;;;;;;;6.07;3.80;;;-0.40;99.90;;;;;;5005592;28;20081;-76
2021/03/01 03:36:29;;;;;;;10.98;4.35;;;-0.50;99.90;;;;;;4995175;28;20607;-75
2021/03/01 03:38:59;;;;;;;8.43;4.00;;;-0.40;99.90;;;;;;4994885;28;20086;-75
2021/03/01 03:41:26;;;;;;;8.40;4.10;;;-0.60;99.90;;;;;;5013583;28;20082;-75
2021/03/01 03:43:53;;;;;;;7.38;4.45;;;-0.40;99.90;;;;;;4997070;28;20089;-75
2021/03/01 03:46:19;;;;;;;6.20;4.32;;;-0.50;99.90;;;;;;5005829;28;20094;-75
2021/03/01 03:48:50;;;;;;;10.05;4.68;;;-0.40;99.90;;;;;;5010892;28;20492;-75
2021/03/01 03:51:18;;;;;;;7.72;4.25;;;-0.30;99.90;;;;;;4992049;28;20082;-75
2021/03/01 03:53:48;;;;;;;8.45;3.90;;;-0.30;99.90;;;;;;4991803;28;20180;-75
2021/03/01 03:56:16;;;;;;;6.97;4.30;;;-0.40;99.90;;;;;;5010426;28;20172;-75
2021/03/01 03:58:48;;;;;;;7.30;4.18;;;-0.50;99.90;;;;;;4991581;28;20148;-75
2021/03/01 04:01:16;;;;;;;6.55;3.70;;;-0.60;99.90;;;;;;4993428;28;20073;-76
2021/03/01 04:03:44;;;;;;;7.50;4.07;;;-0.70;99.90;;;;;;5008627;28;20793;-75
2021/03/01 04:06:17;;;;;;;6.18;4.13;;;-0.50;99.90;;;;;;4991132;28;20091;-75
2021/03/01 04:08:49;;;;;;;6.60;3.88;;;-0.50;99.90;;;;;;5002985;28;20500;-75
2021/03/01 04:11:21;;;;;;;9.15;4.25;;;-0.50;99.90;;;;;;4996103;28;20074;-75
2021/03/01 04:13:50;;;;;;;6.30;3.80;;;-0.60;99.90;;;;;;4992635;28;20221;-75
2021/03/01 04:16:17;;;;;;;7.35;4.55;;;-0.50;99.90;;;;;;4995450;28;20094;-75
2021/03/01 04:18:47;;;;;;;6.45;3.75;;;-0.50;99.90;;;;;;5014544;28;20116;-75
2021/03/01 04:21:13;;;;;;;7.32;5.10;;;-0.60;99.90;;;;;;5004363;28;20075;-75
2021/03/01 04:23:42;;;;;;;8.18;3.97;;;-0.70;99.90;;;;;;5002751;28;20088;-75
2021/03/01 04:26:08;;;;;;;7.05;4.88;;;-0.90;99.90;;;;;;5010087;28;20189;-75
2021/03/01 04:28:35;;;;;;;9.45;4.40;;;-0.80;99.90;;;;;;5005749;28;20157;-75
2021/03/01 04:31:03;;;;;;;6.85;4.07;;;-0.90;99.90;;;;;;4998284;28;20499;-75
2021/03/01 04:33:30;;;;;;;7.20;3.78;;;-0.90;99.90;;;;;;4995682;28;20090;-75
2021/03/01 04:35:57;;;;;;;8.65;4.22;;;-0.90;99.90;;;;;;4992976;28;20082;-75
2021/03/01 04:38:23;;;;;;;7.65;4.97;;;-0.80;99.90;;;;;;4992684;28;20153;-75
2021/03/01 04:40:52;;;;;;;9.23;4.32;;;-1.00;99.90;;;;;;5000956;28;20161;-76
2021/03/01 04:43:21;;;;;;;8.68;5.10;;;-1.10;99.90;;;;;;4998524;28;20129;-75
2021/03/01 04:45:49;;;;;;;8.07;4.22;;;-0.80;99.90;;;;;;4990988;28;20177;-75
2021/03/01 04:48:16;;;;;;;8.05;4.95;;;-0.70;99.90;;;;;;4996475;28;20089;-75
2021/03/01 04:50:46;;;;;;;9.55;4.60;;;-0.70;99.90;;;;;;5009938;28;20536;-75
2021/03/01 04:53:12;;;;;;;7.03;4.55;;;-0.80;99.90;;;;;;5005842;28;20094;-75
2021/03/01 04:55:39;;;;;;;7.95;4.40;;;-0.90;99.90;;;;;;4990866;28;20095;-74
2021/03/01 04:58:06;;;;;;;7.85;5.20;;;-0.90;99.90;;;;;;5008451;28;20528;-75
2021/03/01 05:00:33;;;;;;;8.73;4.85;;;-0.70;99.90;;;;;;4991903;28;20062;-75
2021/03/01 05:03:01;;;;;;;6.70;4.78;;;-0.90;99.90;;;;;;4998685;28;20098;-74
2021/03/01 05:05:27;;;;;;;9.27;5.13;;;-0.90;99.90;;;;;;5011901;28;20556;-75
2021/03/01 05:07:57;;;;;;;8.52;4.72;;;-0.80;99.90;;;;;;4996655;28;20078;-75
2021/03/01 05:10:23;;;;;;;7.85;4.65;;;-1.20;99.90;;;;;;5009283;28;20762;-75
2021/03/01 05:12:49;;;;;;;7.13;4.32;;;-0.90;99.90;;;;;;5009394;28;20103;-75
2021/03/01 05:15:15;;;;;;;6.72;4.47;;;-1.00;99.90;;;;;;5005154;28;20108;-75
2021/03/01 05:17:40;;;;;;;11.00;5.07;;;-0.80;99.90;;;;;;4998160;28;20173;-75
2021/03/01 05:20:07;;;;;;;6.63;4.55;;;-0.80;99.90;;;;;;4998801;28;20074;-76
2021/03/01 05:22:32;;;;;;;7.97;4.70;;;-0.80;99.90;;;;;;5012986;28;20089;-75
2021/03/01 05:24:58;;;;;;;8.95;4.47;;;-0.80;99.90;;;;;;4992398;28;20480;-75
2021/03/01 05:27:24;;;;;;;9.65;4.97;;;-1.10;99.90;;;;;;5006293;28;20109;-76
2021/03/01 05:29:49;;;;;;;7.65;4.45;;;-1.10;99.90;;;;;;4993321;28;20567;-75
2021/03/01 05:32:15;;;;;;;9.52;5.25;;;-1.40;99.90;;;;;;5005549;28;20134;-76
2021/03/01 05:34:41;;;;;;;10.52;4.53;;;-1.30;99.90;;;;;;5022994;28;20487;-76
2021/03/01 05:37:07;;;;;;;15.05;5.03;;;-1.20;99.90;;;;;;5013377;28;20100;-75
2021/03/01 05:39:32;;;;;;;8.93;4.40;;;-1.20;99.90;;;;;;5009416;28;20804;-75
2021/03/01 05:41:58;;;;;;;9.30;5.32;;;-1.30;99.90;;;;;;4999947;28;20086;-75
2021/03/01 05:44:25;;;;;;;8.10;5.05;;;-1.10;99.90;;;;;;5008746;28;20221;-75
2021/03/01 05:46:53;;;;;;;10.32;5.80;;;-1.00;99.90;;;;;;5011471;28;20098;-75
2021/03/01 05:49:20;;;;;;;9.02;5.07;;;-0.80;99.90;;;;;;4994312;28;20097;-75
2021/03/01 05:51:51;;;;;;;9.57;5.80;;;-1.00;99.90;;;;;;5006257;28;20100;-75
2021/03/01 05:54:20;;;;;;;7.35;4.95;;;-1.00;99.90;;;;;;5011263;28;20074;-76
2021/03/01 05:56:50;;;;;;;10.23;5.93;;;-0.80;99.90;;;;;;5009347;28;20092;-75
2021/03/01 05:59:18;;;;;;;10.75;5.68;;;-0.70;99.90;;;;;;4993222;28;20085;-76
2021/03/01 06:01:44;;;;;;;11.45;5.90;;;-0.80;99.90;;;;;;5008217;28;20090;-75
2021/03/01 06:04:11;;;;;;;10.00;5.97;;;-0.60;99.90;;;;;;4994037;28;20563;-75
2021/03/01 06:06:37;;;;;;;13.02;5.55;;;-0.90;99.90;;;;;;5005753;28;20108;-75
2021/03/01 06:09:03;;;;;;;10.00;5.70;;;-1.10;99.90;;;;;;5008671;28;20078;-76
2021/03/01 06:11:29;;;;;;;12.35;6.50;;;-0.90;99.90;;;;;;5008671;28;20140;-75
2021/03/01 06:13:55;;;;;;;11.48;6.07;;;-1.00;99.90;;;;;;5006162;28;20091;-75
2021/03/01 06:16:21;;;;;;;10.90;5.72;;;-1.00;99.90;;;;;;5026746;28;20102;-75
2021/03/01 06:18:47;;;;;;;13.20;5.80;;;-0.90;99.90;;;;;;4998715;28;20169;-74
2021/03/01 06:21:18;;;;;;;11.52;6.30;;;-0.80;99.90;;;;;;5009224;28;20127;-75
2021/03/01 06:23:45;;;;;;;9.60;6.18;;;-1.00;99.90;;;;;;5003884;28;20578;-75
2021/03/01 06:26:33;;;;;;;7.10;5.25;;;-0.90;99.90;;;;;;4998995;28;20180;-75
2021/03/01 06:29:02;;;;;;;9.30;5.50;;;-1.10;99.90;;;;;;5011797;28;20106;-75
2021/03/01 06:31:32;;;;;;;10.23;5.85;;;-1.10;99.90;;;;;;5010748;28;20444;-76
2021/03/01 06:34:27;;;;;;;11.23;5.47;;;-0.90;99.90;;;;;;5006773;28;20141;-77
2021/03/01 06:37:07;;;;;;;10.95;6.07;;;-0.80;99.90;;;;;;5009050;28;20093;-77
2021/03/01 06:39:40;;;;;;;11.82;5.57;;;-0.80;99.90;;;;;;5003856;28;20078;-76
2021/03/01 06:42:18;;;;;;;11.52;5.82;;;-1.00;99.90;;;;;;5016091;28;20492;-76
2021/03/01 06:45:00;;;;;;;9.32;5.55;;;-1.20;99.90;;;;;;5022754;28;20089;-76
2021/03/01 06:47:53;;;;;;;12.57;6.60;;;-1.10;99.90;;;;;;5009607;28;20074;-78
2021/03/01 06:50:35;;;;;;;10.40;6.00;;;-0.90;99.90;;;;;;4998329;28;20086;-76
2021/03/01 06:53:05;;;;;;;12.07;7.30;;;-1.00;99.90;;;;;;4998819;28;20090;-79
2021/03/01 06:55:32;;;;;;;7.78;5.43;;;-0.80;99.90;;;;;;5010980;28;20086;-79
2021/03/01 06:58:13;;;;;;;9.15;5.63;;;-0.60;99.90;;;;;;4997008;28;20626;-82
2021/03/01 07:00:39;;;;;;;9.52;5.43;;;-0.60;99.90;;;;;;5006634;28;20077;-81
2021/03/01 07:03:17;;;;;;;10.15;5.50;;;-0.50;99.90;;;;;;4998833;28;20085;-82
2021/03/01 07:05:57;;;;;;;10.77;6.07;;;-0.30;99.90;;;;;;5012326;28;20100;-81
2021/03/01 07:08:52;;;;;;;11.15;6.22;;;-0.20;99.90;;;;;;4998728;28;20113;-81
2021/03/01 07:11:21;;;;;;;9.70;5.47;;;-0.20;99.90;;;;;;5026004;28;20073;-82
2021/03/01 07:13:48;;;;;;;16.73;7.85;;;-0.30;99.90;;;;;;5015617;28;20148;-82
2021/03/01 07:16:14;;;;;;;11.00;6.10;;;-0.60;99.90;;;;;;5010707;28;20094;-81
2021/03/01 07:18:41;;;;;;;11.32;6.13;;;-0.30;99.90;;;;;;4997726;28;20074;-82
2021/03/01 07:21:12;;;;;;;18.52;7.18;;;0.00;99.90;;;;;;5005320;28;20075;-81
2021/03/01 07:23:42;;;;;;;12.60;6.63;;;-0.10;99.90;;;;;;5001957;28;20085;-79
2021/03/01 07:26:10;;;;;;;13.13;6.72;;;0.00;99.90;;;;;;4994408;28;20205;-79
2021/03/01 07:28:42;;;;;;;12.45;6.82;;;0.30;99.90;;;;;;4998393;28;20085;-78
2021/03/01 07:31:10;;;;;;;11.77;7.03;;;0.40;99.90;;;;;;5020710;28;20093;-78
2021/03/01 07:33:37;;;;;;;12.10;6.38;;;0.70;99.90;;;;;;5010857;28;20081;-79
2021/03/01 07:36:03;;;;;;;13.10;6.78;;;1.10;99.90;;;;;;5010890;28;20463;-78
2021/03/01 07:38:29;;;;;;;12.57;6.80;;;1.30;99.90;;;;;;4998617;28;20161;-79
2021/03/01 07:40:56;;;;;;;12.57;7.30;;;1.40;99.90;;;;;;5008061;28;20074;-78
2021/03/01 07:43:23;;;;;;;13.95;7.53;;;1.60;99.90;;;;;;5013133;28;20120;-78
2021/03/01 07:45:50;;;;;;;10.55;7.03;;;1.80;99.90;;;;;;5012440;28;20094;-78
2021/03/01 07:48:17;;;;;;;10.57;6.93;;;2.00;99.90;;;;;;4994984;28;20088;-78
2021/03/01 07:50:47;;;;;;;12.02;7.57;;;2.20;99.90;;;;;;5009594;28;20074;-78
2021/03/01 07:53:45;;;;;;;10.40;6.70;;;2.20;99.90;;;;;;5010327;28;20118;-78
2021/03/01 07:56:23;;;;;;;14.73;7.60;;;2.30;99.90;;;;;;5001895;28;20568;-77
2021/03/01 07:59:03;;;;;;;10.60;6.72;;;2.50;99.90;;;;;;5001715;28;20071;-77
2021/03/01 08:01:29;;;;;;;13.23;6.95;;;2.50;99.90;;;;;;5005444;28;20069;-78
2021/03/01 08:03:55;;;;;;;12.85;7.47;;;2.70;99.90;;;;;;5003940;28;20165;-77
2021/03/01 08:06:22;;;;;;;13.35;7.93;;;2.90;99.90;;;;;;4992509;28;20095;-77
2021/03/01 08:08:49;;;;;;;12.43;7.53;;;3.10;99.90;;;;;;5000765;28;20086;-76
2021/03/01 08:11:35;;;;;;;12.85;7.93;;;3.20;99.90;;;;;;4999256;28;20094;-78
2021/03/01 08:14:00;;;;;;;11.13;6.85;;;3.40;99.90;;;;;;5002778;28;20152;-77
2021/03/01 08:16:26;;;;;;;10.45;6.80;;;3.50;99.90;;;;;;5000429;28;20098;-77
2021/03/01 08:18:58;;;;;;;11.88;7.10;;;3.60;99.90;;;;;;5006233;28;20067;-77
2021/03/01 08:21:52;;;;;;;12.02;7.20;;;3.80;99.90;;;;;;5003666;28;20102;-77
2021/03/01 08:24:53;;;;;;;10.98;7.18;;;3.90;99.90;;;;;;4996859;28;20101;-76
2021/03/01 08:27:25;;;;;;;13.07;7.78;;;3.80;99.90;;;;;;4979595;28;20184;-77
2021/03/01 08:30:33;;;;;;;13.27;7.50;;;4.00;99.90;;;;;;4999801;28;20062;-77
2021/03/01 08:33:08;;;;;;;12.57;8.10;;;4.20;99.90;;;;;;4998327;28;20090;-77
2021/03/01 08:35:35;;;;;;;11.88;7.57;;;4.20;99.90;;;;;;5005559;28;20180;-77
2021/03/01 08:38:00;;;;;;;12.00;6.43;;;4.30;99.90;;;;;;5005218;28;20082;-77
2021/03/01 08:40:30;;;;;;;10.65;6.20;;;4.30;99.90;;;;;;5004822;28;20163;-77
2021/03/01 08:43:01;;;;;;;9.80;6.80;;;4.30;99.90;;;;;;5004987;28;20563;-77
2021/03/01 08:45:28;;;;;;;11.23;6.78;;;4.40;99.90;;;;;;5011664;28;20102;-77
2021/03/01 08:47:56;;;;;;;12.10;6.95;;;4.80;99.90;;;;;;5003861;28;20085;-77
2021/03/01 08:50:26;;;;;;;11.00;6.95;;;5.00;99.90;;;;;;5006640;28;20075;-76
2021/03/01 08:52:52;;;;;;;11.15;6.88;;;4.90;99.90;;;;;;4996133;28;20092;-77
2021/03/01 08:55:19;;;;;;;9.10;6.40;;;5.00;99.90;;;;;;5000654;28;20098;-77
2021/03/01 08:58:05;;;;;;;10.98;6.63;;;5.00;99.70;;;;;;5008185;28;20085;-76
2021/03/01 09:00:34;;;;;;;12.60;7.00;;;5.30;99.00;;;;;;5012069;28;20213;-77
2021/03/01 09:03:14;;;;;;;10.23;6.97;;;5.30;99.10;;;;;;5010819;28;20090;-77
2021/03/01 09:05:45;;;;;;;11.30;6.93;;;5.20;98.60;;;;;;5012519;28;20093;-77
2021/03/01 09:08:12;;;;;;;11.27;6.85;;;5.20;98.90;;;;;;4998314;28;20105;-77
2021/03/01 09:10:45;;;;;;;10.32;6.60;;;5.20;98.90;;;;;;5000122;28;20232;-77
2021/03/01 09:13:16;;;;;;;11.00;6.70;;;5.20;98.70;;;;;;5002203;28;20556;-77
2021/03/01 09:15:42;;;;;;;12.40;6.50;;;5.60;97.30;;;;;;5014317;28;20094;-77
2021/03/01 09:18:09;;;;;;;8.90;6.22;;;5.80;95.90;;;;;;4995226;28;20136;-79
2021/03/01 09:20:42;;;;;;;9.38;5.68;;;5.80;94.60;;;;;;5025316;28;20078;-77
2021/03/01 09:23:08;;;;;;;10.48;6.05;;;5.80;95.30;;;;;;5008139;28;20168;-78
2021/03/01 09:25:35;;;;;;;10.07;6.13;;;6.00;93.90;;;;;;5009505;28;20098;-78
2021/03/01 09:28:01;;;;;;;10.00;6.10;;;6.20;95.10;;;;;;5000942;28;20086;-77
2021/03/01 09:30:28;;;;;;;8.82;5.32;;;6.10;94.10;;;;;;5009288;28;20545;-78
2021/03/01 09:33:05;;;;;;;10.13;6.18;;;6.00;93.60;;;;;;5000581;28;20096;-77
2021/03/01 09:35:48;;;;;;;9.27;5.10;;;6.10;93.40;;;;;;5005285;28;20121;-77
2021/03/01 09:38:56;;;;;;;8.88;5.63;;;6.10;92.70;;;;;;5025527;28;20092;-78
2021/03/01 09:41:45;;;;;;;9.93;6.20;;;6.40;92.50;;;;;;4998088;28;20087;-78
2021/03/01 09:44:27;;;;;;;10.45;5.90;;;6.20;92.50;;;;;;5000224;28;20093;-77
2021/03/01 09:47:16;;;;;;;8.13;5.75;;;6.20;91.80;;;;;;4996462;28;20082;-77
2021/03/01 09:49:47;;;;;;;8.52;6.47;;;6.30;91.90;;;;;;5021758;28;20537;-77
2021/03/01 09:52:16;;;;;;;11.05;6.20;;;6.30;93.40;;;;;;4993176;28;20567;-79
2021/03/01 09:54:42;;;;;;;8.23;5.65;;;6.30;89.40;;;;;;5003900;28;20062;-79
2021/03/01 09:57:09;;;;;;;8.07;6.28;;;6.40;88.80;;;;;;4997266;28;20857;-80
2021/03/01 09:59:42;;;;;;;7.70;5.25;;;6.50;86.40;;;;;;5002971;28;20110;-81
2021/03/01 10:02:12;;;;;;;9.13;6.10;;;6.60;86.40;;;;;;5001639;28;20066;-80
2021/03/01 10:04:38;;;;;;;7.75;5.22;;;6.60;83.90;;;;;;5009031;28;20181;-81
2021/03/01 10:07:34;;;;;;;11.00;6.18;;;6.70;83.60;;;;;;4999818;28;20078;-81
2021/03/01 10:10:14;;;;;;;13.00;6.95;;;6.60;92.40;;;;;;4991267;28;20121;-80
2021/03/01 10:12:47;;;;;;;12.32;7.93;;;6.50;96.70;;;;;;5023315;28;20108;-81
2021/03/01 10:15:13;;;;;;;12.40;7.65;;;6.50;97.10;;;;;;5010092;28;20099;-80
2021/03/01 10:17:39;;;;;;;12.80;7.70;;;6.60;96.70;;;;;;5013261;28;20559;-80
2021/03/01 10:20:07;;;;;;;12.45;8.00;;;6.60;97.20;;;;;;5005951;28;20070;-80
2021/03/01 10:22:59;;;;;;;12.45;8.15;;;6.60;96.50;;;;;;5011762;28;20238;-80
2021/03/01 10:25:37;;;;;;;11.63;7.90;;;6.70;97.20;;;;;;5003423;28;20104;-80
2021/03/01 10:28:27;;;;;;;11.85;7.07;;;6.80;95.40;;;;;;5018306;28;20074;-80
2021/03/01 10:31:20;;;;;;;12.10;7.13;;;6.80;94.90;;;;;;5002785;28;20078;-81
2021/03/01 10:33:58;;;;;;;8.40;5.90;;;6.90;93.80;;;;;;5013929;28;20152;-80
2021/03/01 10:36:48;;;;;;;10.32;6.47;;;7.00;92.30;;;;;;5000398;28;20096;-80
2021/03/01 10:39:29;;;;;;;9.27;5.72;;;7.10;92.60;;;;;;5004462;28;20082;-80
2021/03/01 10:41:57;;;;;;;10.05;5.88;;;7.30;90.40;;;;;;5009760;28;20859;-80
2021/03/01 10:44:29;;;;;;;10.35;6.57;;;7.30;91.30;;;;;;5004237;28;20086;-79
2021/03/01 10:46:55;;;;;;;9.45;4.93;;;7.40;87.00;;;;;;5014136;28;20142;-80
2021/03/01 10:49:30;;;;;;;7.07;4.70;;;7.40;79.70;;;;;;5008523;28;20944;-80
2021/03/01 10:51:58;;;;;;;7.18;5.00;;;7.50;78.00;;;;;;5017338;28;20081;-78
2021/03/01 10:54:25;;;;;;;7.78;5.63;;;7.60;79.40;;;;;;5008490;28;20161;-78
2021/03/01 10:56:51;;;;;;;6.68;5.28;;;7.60;80.10;;;;;;5001483;28;20097;-77
2021/03/01 10:59:18;;;;;;;7.20;5.53;;;7.70;79.30;;;;;;4994743;28;20081;-77
2021/03/01 11:01:46;;;;;;;8.05;5.30;;;7.70;82.80;;;;;;5007280;28;20108;-77
2021/03/01 11:04:13;;;;;;;8.65;5.30;;;7.90;81.90;;;;;;5001808;28;20074;-77
2021/03/01 11:06:39;;;;;;;10.32;5.97;;;7.90;79.90;;;;;;5000338;28;20113;-78
2021/03/01 11:09:08;;;;;;;7.82;5.05;;;7.90;80.30;;;;;;5010995;28;20077;-77
2021/03/01 11:11:36;;;;;;;9.25;5.47;;;8.00;80.70;;;;;;5005240;28;20098;-77
2021/03/01 11:14:03;;;;;;;7.70;5.05;;;7.90;79.40;;;;;;5008708;28;20140;-76
2021/03/01 11:16:28;;;;;;;8.10;5.13;;;8.10;82.10;;;;;;5000907;28;20090;-77
2021/03/01 11:18:54;;;;;;;9.27;4.85;;;8.00;81.30;;;;;;5000063;28;20183;-78
2021/03/01 11:21:21;;;;;;;8.18;5.32;;;8.10;82.90;;;;;;5017913;28;20081;-77
2021/03/01 11:23:47;;;;;;;10.98;6.38;;;8.10;83.10;;;;;;4996403;28;20618;-77
2021/03/01 11:26:14;;;;;;;10.13;6.40;;;8.20;86.10;;;;;;4996608;28;20464;-80
2021/03/01 11:28:40;;;;;;;9.82;6.38;;;8.10;88.70;;;;;;5009901;28;20082;-79
2021/03/01 11:31:06;;;;;;;11.13;7.00;;;8.10;90.70;;;;;;5001916;28;20078;-79
2021/03/01 11:33:32;;;;;;;9.48;6.13;;;8.30;88.50;;;;;;5000482;28;20460;-80
2021/03/01 11:35:58;;;;;;;9.15;5.95;;;8.40;88.90;;;;;;5009024;28;20557;-80
2021/03/01 11:38:26;;;;;;;10.18;6.38;;;8.30;90.20;;;;;;5002158;28;20080;-81
2021/03/01 11:40:52;;;;;;;9.45;6.68;;;8.30;89.70;;;;;;5010404;28;20074;-80
2021/03/01 11:43:18;;;;;;;11.10;5.57;;;8.40;89.70;;;;;;5005044;28;20166;-81
2021/03/01 11:45:45;;;;;;;9.70;5.80;;;8.70;89.40;;;;;;4997589;28;20181;-80
2021/03/01 11:48:13;;;;;;;10.90;6.43;;;8.80;86.20;;;;;;5005982;28;20088;-81
2021/03/01 11:50:40;;;;;;;9.32;5.68;;;8.80;87.60;;;;;;4997205;28;20160;-79
2021/03/01 11:53:06;;;;;;;10.32;5.43;;;8.80;85.30;;;;;;4994514;28;20169;-79
2021/03/01 11:55:32;;;;;;;8.00;5.30;;;9.00;82.30;;;;;;5005976;28;20193;-78
2021/03/01 11:57:57;;;;;;;10.25;6.18;;;8.90;84.90;;;;;;4993483;28;20086;-81
2021/03/01 12:00:23;;;;;;;9.55;5.68;;;8.90;83.40;;;;;;5007174;28;20074;-79
2021/03/01 12:02:49;;;;;;;8.65;5.60;;;9.00;84.70;;;;;;5011685;28;20088;-80
2021/03/01 12:05:15;;;;;;;9.23;5.40;;;9.10;84.40;;;;;;5012300;28;20102;-79
2021/03/01 12:07:41;;;;;;;9.20;5.95;;;9.10;82.30;;;;;;5009602;28;20443;-80
2021/03/01 12:10:07;;;;;;;9.15;5.28;;;9.30;82.10;;;;;;4996230;28;20085;-77
2021/03/01 12:12:33;;;;;;;7.75;5.45;;;9.30;81.70;;;;;;5003882;28;20105;-77
2021/03/01 12:14:59;;;;;;;10.20;5.78;;;9.30;81.40;;;;;;5001125;28;20154;-77
2021/03/01 12:17:25;;;;;;;9.73;5.05;;;9.40;82.30;;;;;;5007290;28;20112;-80
2021/03/01 12:19:50;;;;;;;9.00;4.90;;;9.40;80.10;;;;;;5017873;28;20086;-78
2021/03/01 12:22:16;;;;;;;8.50;5.50;;;9.60;80.90;;;;;;5015834;28;20084;-79
2021/03/01 12:24:45;;;;;;;8.55;4.88;;;9.60;80.10;;;;;;5017063;28;20536;-80
2021/03/01 12:27:11;;;;;;;7.90;4.53;;;9.50;80.10;;;;;;5011002;28;20073;-81
2021/03/01 12:29:37;;;;;;;10.88;5.07;;;9.90;76.00;;;;;;5009706;28;20082;-80
2021/03/01 12:32:03;;;;;;;7.05;4.55;;;9.90;75.90;;;;;;5020446;28;20078;-80
2021/03/01 12:34:28;;;;;;;8.68;4.70;;;10.00;75.20;;;;;;5018586;28;20074;-79
2021/03/01 12:36:54;;;;;;;7.10;4.05;;;9.90;77.30;;;;;;5016955;28;20098;-80
2021/03/01 12:39:20;;;;;;;5.40;4.20;;;10.00;73.90;;;;;;5010868;28;20082;-79
2021/03/01 12:41:46;;;;;;;6.65;4.57;;;10.00;72.90;;;;;;5017833;28;20085;-81
2021/03/01 12:44:11;;;;;;;6.10;4.07;;;10.00;74.00;;;;;;5009738;28;20081;-80
2021/03/01 12:46:37;;;;;;;5.13;3.28;;;10.10;71.50;;;;;;5021788;28;20554;-80
2021/03/01 12:49:03;;;;;;;4.63;3.42;;;10.10;71.90;;;;;;5014625;28;20097;-79
2021/03/01 12:51:29;;;;;;;6.22;3.92;;;10.10;71.30;;;;;;5018107;28;20437;-80
2021/03/01 12:53:56;;;;;;;4.40;2.90;;;10.20;72.90;;;;;;5016098;28;20232;-81
2021/03/01 12:56:21;;;;;;;6.18;4.22;;;10.20;70.70;;;;;;5003165;28;20098;-81
2021/03/01 12:58:47;;;;;;;5.50;3.25;;;10.10;70.60;;;;;;5023563;28;20090;-81
2021/03/01 13:01:13;;;;;;;4.88;3.50;;;10.20;70.60;;;;;;5011685;28;20075;-81
2021/03/01 13:03:38;;;;;;;8.38;3.33;;;10.20;73.70;;;;;;5020194;28;20082;-80